Time;durP1;ratioP1;P1;durP2;ratioP2;P2;SDS_P1;SDS_P2;PMS_P1;PMS_P2;Temp;Humidity;BMP_temperature;BMP_pressure;BME280_temperature;BME280_humidity;BME280_pressure;Samples;Min_cycle;Max_cycle;Signal;HPM_P1;HPM_P2
2022/11/15 00:01:58;;;;;;;12.93;7.67;;;7.20;99.90;;;;;;5098933;28;20189;-82
2022/11/15 00:04:25;;;;;;;15.53;9.00;;;7.30;99.90;;;;;;5095662;28;20265;-82
2022/11/15 00:06:52;;;;;;;14.83;7.83;;;7.20;99.90;;;;;;5093993;28;20224;-82
2022/11/15 00:09:18;;;;;;;11.97;7.07;;;7.50;99.90;;;;;;5086583;28;20218;-82
2022/11/15 00:11:46;;;;;;;13.70;7.70;;;7.40;99.90;;;;;;5085011;28;20262;-82
2022/11/15 00:14:13;;;;;;;14.57;7.77;;;7.40;99.90;;;;;;5088233;28;20205;-82
2022/11/15 00:16:40;;;;;;;12.97;7.87;;;7.40;99.90;;;;;;5106887;28;20205;-81
2022/11/15 00:19:07;;;;;;;13.40;8.40;;;7.40;99.90;;;;;;5105996;28;20198;-82
2022/11/15 00:21:34;;;;;;;12.57;7.77;;;7.50;99.90;;;;;;5110103;28;20215;-82
2022/11/15 00:24:00;;;;;;;12.33;7.33;;;7.50;99.90;;;;;;5128502;28;20204;-82
2022/11/15 00:26:27;;;;;;;12.63;7.20;;;7.50;99.90;;;;;;5103801;28;20226;-82
2022/11/15 00:28:55;;;;;;;12.37;7.60;;;7.60;99.90;;;;;;5090873;28;20218;-83
2022/11/15 00:31:22;;;;;;;12.80;7.37;;;7.50;99.90;;;;;;5088706;28;20212;-82
2022/11/15 00:33:49;;;;;;;13.40;7.70;;;7.50;99.90;;;;;;5105745;28;20208;-82
2022/11/15 00:36:16;;;;;;;16.70;8.80;;;7.60;99.90;;;;;;5104591;28;20269;-82
2022/11/15 00:38:42;;;;;;;12.30;7.27;;;7.60;99.90;;;;;;5093412;28;20219;-82
2022/11/15 00:41:09;;;;;;;11.83;7.13;;;7.70;99.90;;;;;;5101852;28;20201;-82
2022/11/15 00:43:36;;;;;;;13.03;7.30;;;7.80;99.90;;;;;;5102525;28;20214;-82
2022/11/15 00:46:05;;;;;;;15.43;7.37;;;7.70;99.90;;;;;;5088783;28;20198;-82
2022/11/15 00:48:32;;;;;;;13.70;7.90;;;8.00;99.90;;;;;;5084335;28;20222;-82
2022/11/15 00:50:59;;;;;;;11.53;6.80;;;7.90;99.90;;;;;;5100735;28;20201;-82
2022/11/15 00:53:25;;;;;;;14.47;7.97;;;7.90;99.90;;;;;;5096003;28;20714;-82
2022/11/15 00:55:52;;;;;;;13.33;7.77;;;8.40;99.90;;;;;;5096852;28;20204;-82
2022/11/15 00:58:20;;;;;;;16.10;8.23;;;8.40;99.90;;;;;;5103650;28;20217;-82
2022/11/15 01:00:46;;;;;;;11.80;6.90;;;8.40;99.90;;;;;;5103657;28;20196;-83
2022/11/15 01:03:14;;;;;;;13.13;7.70;;;8.90;99.90;;;;;;5100375;28;20201;-83
2022/11/15 01:05:41;;;;;;;11.70;7.60;;;8.80;99.90;;;;;;5105028;28;20292;-82
2022/11/15 01:08:13;;;;;;;12.10;7.60;;;9.00;99.90;;;;;;5091780;28;20233;-82
2022/11/15 01:10:40;;;;;;;13.33;7.80;;;9.20;99.90;;;;;;5086739;28;20221;-82
2022/11/15 01:13:07;;;;;;;12.90;8.17;;;9.50;99.90;;;;;;5089857;28;20204;-83
2022/11/15 01:15:34;;;;;;;12.73;8.07;;;9.40;99.90;;;;;;5097373;28;20206;-82
2022/11/15 01:18:00;;;;;;;12.00;7.23;;;9.50;99.90;;;;;;5084914;28;20222;-83
2022/11/15 01:20:28;;;;;;;12.10;7.40;;;9.60;99.90;;;;;;5083550;28;20304;-83
2022/11/15 01:22:55;;;;;;;12.33;6.93;;;9.70;99.90;;;;;;5083260;28;20221;-82
2022/11/15 01:25:22;;;;;;;14.10;7.40;;;9.80;99.90;;;;;;5088099;28;20198;-83
2022/11/15 01:27:49;;;;;;;12.83;7.97;;;9.70;99.90;;;;;;5093099;28;20228;-83
2022/11/15 01:30:16;;;;;;;13.03;7.63;;;10.00;99.90;;;;;;5097371;28;20229;-82
2022/11/15 01:32:43;;;;;;;12.83;7.50;;;10.20;99.90;;;;;;5097468;28;20676;-83
2022/11/15 01:35:09;;;;;;;12.63;7.70;;;10.10;99.90;;;;;;5097769;28;20210;-82
2022/11/15 01:37:37;;;;;;;13.17;7.87;;;10.10;99.90;;;;;;5100971;28;20613;-82
2022/11/15 01:40:05;;;;;;;11.60;7.97;;;10.20;99.90;;;;;;5096588;28;20280;-82
2022/11/15 01:42:32;;;;;;;12.27;7.70;;;10.10;99.90;;;;;;5100321;28;20654;-82
2022/11/15 01:44:59;;;;;;;16.10;7.57;;;10.10;99.90;;;;;;5083121;28;20209;-82
2022/11/15 01:47:29;;;;;;;10.77;7.47;;;10.30;99.90;;;;;;5083071;28;20219;-83
2022/11/15 01:50:00;;;;;;;9.60;6.87;;;9.90;99.90;;;;;;5099218;28;20285;-83
2022/11/15 01:52:29;;;;;;;14.07;7.30;;;9.90;99.90;;;;;;5098743;28;20213;-82
2022/11/15 01:55:04;;;;;;;11.23;6.80;;;10.10;99.90;;;;;;5097649;28;20209;-83
2022/11/15 01:57:31;;;;;;;11.47;7.17;;;10.10;99.90;;;;;;5089609;28;20233;-83
2022/11/15 01:59:59;;;;;;;12.70;6.90;;;10.20;99.90;;;;;;5102451;28;20269;-83
2022/11/15 02:02:26;;;;;;;13.00;7.90;;;10.30;99.90;;;;;;5083324;28;20216;-83
2022/11/15 02:04:53;;;;;;;13.03;7.20;;;10.70;99.90;;;;;;5101047;28;20261;-83
2022/11/15 02:07:22;;;;;;;12.80;7.33;;;10.80;99.90;;;;;;5103142;28;20304;-83
2022/11/15 02:09:50;;;;;;;12.00;7.13;;;10.70;99.90;;;;;;5083549;28;20692;-82
2022/11/15 02:12:21;;;;;;;11.77;7.30;;;11.00;99.90;;;;;;5080869;28;20210;-83
2022/11/15 02:14:52;;;;;;;13.50;7.43;;;10.90;99.90;;;;;;5091601;28;20289;-83
2022/11/15 02:17:41;;;;;;;12.17;7.43;;;11.10;99.90;;;;;;5093333;28;20308;-83
2022/11/15 02:20:43;;;;;;;12.23;7.67;;;10.70;99.90;;;;;;5095724;28;20269;-83
2022/11/15 02:23:36;;;;;;;12.73;7.40;;;10.90;99.90;;;;;;5096833;28;20200;-83
2022/11/15 02:26:25;;;;;;;11.90;7.27;;;11.00;99.90;;;;;;5095129;28;20210;-83
2022/11/15 02:29:01;;;;;;;12.23;6.73;;;11.10;99.90;;;;;;5093801;28;20591;-82
2022/11/15 02:31:39;;;;;;;15.83;6.83;;;10.90;99.90;;;;;;5102355;28;20227;-83
2022/11/15 02:34:17;;;;;;;10.80;6.80;;;11.10;99.90;;;;;;5092669;28;20214;-82
2022/11/15 02:36:55;;;;;;;11.53;6.67;;;11.10;99.90;;;;;;5089059;28;20204;-83
2022/11/15 02:39:29;;;;;;;12.17;6.80;;;11.00;99.90;;;;;;5094223;28;20217;-83
2022/11/15 02:42:01;;;;;;;11.23;7.10;;;10.80;99.90;;;;;;5080573;28;20206;-83
2022/11/15 02:44:32;;;;;;;11.50;6.93;;;10.80;99.90;;;;;;5081057;28;20208;-83
2022/11/15 02:47:14;;;;;;;10.83;6.47;;;10.80;99.90;;;;;;5084687;28;20225;-83
2022/11/15 02:49:44;;;;;;;11.80;7.07;;;11.20;99.90;;;;;;5087890;28;20223;-83
2022/11/15 02:52:16;;;;;;;11.83;6.53;;;11.30;99.90;;;;;;5098537;28;20194;-83
2022/11/15 02:54:43;;;;;;;10.97;6.57;;;11.30;99.90;;;;;;5098904;28;20209;-83
2022/11/15 02:57:16;;;;;;;7.90;5.80;;;11.40;99.90;;;;;;5082355;28;20229;-83
2022/11/15 03:00:04;;;;;;;9.93;6.40;;;11.30;99.90;;;;;;5098389;28;20218;-83
2022/11/15 03:02:52;;;;;;;12.00;7.17;;;11.20;99.90;;;;;;5116326;28;20205;-83
2022/11/15 03:05:26;;;;;;;10.13;6.23;;;11.30;99.90;;;;;;5101446;28;20197;-83
2022/11/15 03:07:58;;;;;;;14.10;6.20;;;11.20;99.90;;;;;;5096457;28;20232;-83
2022/11/15 03:10:32;;;;;;;9.33;6.00;;;11.10;99.90;;;;;;5106234;28;20300;-83
2022/11/15 03:13:05;;;;;;;8.57;5.77;;;11.20;99.90;;;;;;5103022;28;20657;-82
2022/11/15 03:15:37;;;;;;;11.47;6.27;;;11.30;99.90;;;;;;5093444;28;20200;-83
2022/11/15 03:18:13;;;;;;;10.27;5.60;;;11.20;99.90;;;;;;5105895;28;20218;-83
2022/11/15 03:20:41;;;;;;;10.63;6.50;;;11.40;99.90;;;;;;5094692;28;20201;-83
2022/11/15 03:23:10;;;;;;;8.03;5.50;;;11.30;99.90;;;;;;5096294;28;20198;-83
2022/11/15 03:25:41;;;;;;;8.93;5.57;;;11.30;99.90;;;;;;5087536;28;20202;-82
2022/11/15 03:28:12;;;;;;;10.37;6.53;;;11.30;99.90;;;;;;5096803;28;20305;-83
2022/11/15 03:30:40;;;;;;;9.10;5.97;;;11.20;99.90;;;;;;5096611;28;20221;-83
2022/11/15 03:33:11;;;;;;;9.23;5.60;;;11.30;99.90;;;;;;5097863;28;20256;-83
2022/11/15 03:35:43;;;;;;;9.40;6.00;;;11.30;99.90;;;;;;5098848;28;20301;-83
2022/11/15 03:38:16;;;;;;;9.40;5.80;;;11.00;99.90;;;;;;5101882;28;20225;-84
2022/11/15 03:40:47;;;;;;;10.67;6.00;;;10.90;99.90;;;;;;5096994;28;20198;-83
2022/11/15 03:43:21;;;;;;;11.23;5.53;;;11.10;99.90;;;;;;5079765;28;20212;-83
2022/11/15 03:45:52;;;;;;;8.67;5.27;;;10.90;99.90;;;;;;5087506;28;20186;-84
2022/11/15 03:48:25;;;;;;;9.37;5.93;;;10.60;99.90;;;;;;5101939;28;20225;-83
2022/11/15 03:50:52;;;;;;;9.33;6.00;;;10.40;99.90;;;;;;5086287;28;20208;-83
2022/11/15 03:53:19;;;;;;;7.63;5.53;;;10.30;99.90;;;;;;5101902;28;20215;-83
2022/11/15 03:55:45;;;;;;;10.03;6.27;;;10.10;99.90;;;;;;5102066;28;20208;-83
2022/11/15 03:58:12;;;;;;;9.13;5.03;;;9.90;99.90;;;;;;5101386;28;20801;-83
2022/11/15 04:00:39;;;;;;;8.97;5.27;;;9.80;99.90;;;;;;5087401;28;20261;-83
2022/11/15 04:03:07;;;;;;;7.03;4.87;;;9.90;99.90;;;;;;5099854;28;20285;-84
2022/11/15 04:05:35;;;;;;;10.93;6.43;;;9.50;99.90;;;;;;5098535;28;20195;-83
2022/11/15 04:08:02;;;;;;;7.97;5.50;;;9.40;99.90;;;;;;5082329;28;20218;-83
2022/11/15 04:10:29;;;;;;;8.67;5.77;;;9.50;99.90;;;;;;5084158;28;20673;-83
2022/11/15 04:12:55;;;;;;;10.20;5.43;;;9.40;99.90;;;;;;5097134;28;20710;-83
2022/11/15 04:15:24;;;;;;;7.47;5.30;;;9.40;99.90;;;;;;5100847;28;20202;-83
2022/11/15 04:17:53;;;;;;;10.07;5.63;;;9.60;99.90;;;;;;5106521;28;20228;-82
2022/11/15 04:25:56;;;;;;;50.90;34.73;;;9.30;99.90;;;;;;5105867;28;20228;-82
2022/11/15 04:28:24;;;;;;;18.50;9.27;;;9.10;99.90;;;;;;5105084;28;20285;-82
2022/11/15 04:30:51;;;;;;;8.37;5.80;;;9.10;99.90;;;;;;5104909;28;20616;-81
2022/11/15 04:33:18;;;;;;;7.33;5.23;;;9.10;99.90;;;;;;5098539;28;20577;-81
2022/11/15 04:37:11;;;;;;;9.03;6.10;;;9.00;99.90;;;;;;5097329;28;20661;-81
2022/11/15 04:38:33;;;;;;;9.37;5.23;;;9.00;99.90;;;;;;5096278;28;20290;-81
2022/11/15 04:41:00;;;;;;;11.13;5.70;;;9.00;99.90;;;;;;5097401;28;20266;-81
2022/11/15 04:43:26;;;;;;;8.03;5.23;;;8.90;99.90;;;;;;5097075;28;20216;-81
2022/11/15 04:45:53;;;;;;;8.77;4.83;;;8.80;99.90;;;;;;5096954;28;20206;-82
2022/11/15 04:48:20;;;;;;;11.10;5.10;;;8.80;99.90;;;;;;5097282;28;20231;-81
2022/11/15 04:50:49;;;;;;;6.67;5.20;;;8.80;99.90;;;;;;5096788;28;20232;-82
2022/11/15 04:53:15;;;;;;;8.30;5.13;;;8.70;99.90;;;;;;5096248;28;20204;-81
2022/11/15 04:55:47;;;;;;;8.13;5.30;;;8.70;99.90;;;;;;5098802;28;20212;-81
2022/11/15 04:58:13;;;;;;;8.37;5.27;;;8.90;99.90;;;;;;5098262;28;20253;-81
2022/11/15 05:00:40;;;;;;;9.00;5.20;;;9.30;99.90;;;;;;5096464;28;20206;-81
2022/11/15 05:05:51;;;;;;;12.20;5.70;;;9.10;99.90;;;;;;5096321;28;20200;-81
2022/11/15 05:08:18;;;;;;;10.43;5.50;;;9.10;99.90;;;;;;5095902;28;20263;-81
2022/11/15 05:10:46;;;;;;;9.00;5.03;;;9.10;99.90;;;;;;5095901;28;20221;-81
2022/11/15 05:13:13;;;;;;;8.97;5.30;;;9.10;99.90;;;;;;5096204;28;20220;-81
2022/11/15 05:15:40;;;;;;;9.30;5.23;;;9.00;99.90;;;;;;5096210;28;20546;-81
2022/11/15 05:18:07;;;;;;;8.80;5.33;;;9.00;99.90;;;;;;5096144;28;20233;-81
2022/11/15 05:20:33;;;;;;;8.87;5.43;;;9.00;99.90;;;;;;5095896;28;20205;-81
2022/11/15 05:23:00;;;;;;;10.33;4.90;;;9.00;99.90;;;;;;5095562;28;20213;-82
2022/11/15 05:25:28;;;;;;;8.73;5.33;;;9.10;99.90;;;;;;5095831;28;20212;-81
2022/11/15 05:27:56;;;;;;;8.10;4.83;;;9.50;99.90;;;;;;5094042;28;20228;-81
2022/11/15 05:30:23;;;;;;;6.17;4.70;;;9.40;99.90;;;;;;5111749;28;20232;-81
2022/11/15 05:32:50;;;;;;;7.60;4.97;;;9.40;99.90;;;;;;5095854;28;20194;-82
2022/11/15 05:35:22;;;;;;;7.83;5.27;;;9.20;99.90;;;;;;5090342;28;20274;-81
2022/11/15 05:37:49;;;;;;;5.43;4.40;;;9.20;99.90;;;;;;5095536;28;20224;-81
2022/11/15 05:40:17;;;;;;;6.57;4.60;;;9.30;99.90;;;;;;5095118;28;20307;-81
2022/11/15 05:42:43;;;;;;;7.07;5.13;;;9.30;99.90;;;;;;5095139;28;20217;-81
2022/11/15 05:45:12;;;;;;;7.63;4.97;;;9.30;99.90;;;;;;5095438;28;20662;-82
2022/11/15 05:47:40;;;;;;;8.83;5.37;;;9.60;99.90;;;;;;5096783;28;20222;-81
2022/11/15 05:50:08;;;;;;;7.10;4.60;;;9.70;99.90;;;;;;5095299;28;20225;-81
2022/11/15 05:52:37;;;;;;;7.67;5.00;;;9.50;99.90;;;;;;5094151;28;20212;-81
2022/11/15 05:55:07;;;;;;;9.70;5.50;;;9.20;99.90;;;;;;5075858;28;20198;-81
2022/11/15 05:57:34;;;;;;;9.30;5.23;;;9.20;99.90;;;;;;5073641;28;20236;-81
2022/11/15 06:00:01;;;;;;;9.33;5.73;;;8.80;99.90;;;;;;5094241;28;20201;-81
2022/11/15 06:02:29;;;;;;;9.20;5.60;;;8.60;99.90;;;;;;5094672;28;20799;-81
2022/11/15 06:04:56;;;;;;;11.27;6.43;;;8.60;99.90;;;;;;5094090;28;20285;-81
2022/11/15 06:07:23;;;;;;;8.97;5.77;;;8.50;99.90;;;;;;5094859;28;20304;-81
2022/11/15 06:09:50;;;;;;;10.10;5.60;;;8.40;99.90;;;;;;5096044;28;20666;-81
2022/11/15 06:12:16;;;;;;;8.43;5.47;;;8.50;99.90;;;;;;5095423;28;20208;-81
2022/11/15 06:14:43;;;;;;;9.20;5.67;;;8.30;99.90;;;;;;5093914;28;20208;-81
2022/11/15 06:17:10;;;;;;;10.23;6.23;;;8.20;99.90;;;;;;5094360;28;20225;-81
2022/11/15 06:19:38;;;;;;;8.73;5.53;;;8.10;99.90;;;;;;5094800;28;20210;-81
2022/11/15 06:22:05;;;;;;;10.77;5.43;;;8.10;99.90;;;;;;5093796;28;20208;-81
2022/11/15 06:24:32;;;;;;;8.73;5.63;;;8.10;99.90;;;;;;5095199;28;20233;-81
2022/11/15 06:26:58;;;;;;;8.70;5.27;;;8.20;99.90;;;;;;5092359;28;20232;-81
2022/11/15 06:29:25;;;;;;;12.20;6.20;;;8.10;99.90;;;;;;5074852;28;20204;-81
2022/11/15 06:31:52;;;;;;;9.53;5.03;;;8.30;99.90;;;;;;5073726;28;20225;-81
2022/11/15 06:34:19;;;;;;;11.87;6.17;;;8.60;99.90;;;;;;5093479;28;20288;-81
2022/11/15 06:36:47;;;;;;;8.87;5.93;;;8.60;99.90;;;;;;5093862;28;20212;-81
2022/11/15 06:39:14;;;;;;;9.83;5.63;;;9.10;99.90;;;;;;5094540;28;20206;-81
2022/11/15 06:41:40;;;;;;;11.20;6.20;;;9.00;99.90;;;;;;5095440;28;20197;-82
2022/11/15 06:44:07;;;;;;;10.13;5.60;;;9.00;99.90;;;;;;5093967;28;20226;-81
2022/11/15 06:46:34;;;;;;;9.37;5.63;;;9.00;99.90;;;;;;5094112;28;20198;-81
2022/11/15 06:49:01;;;;;;;9.53;5.53;;;9.20;99.90;;;;;;5093262;28;20216;-81
2022/11/15 06:51:28;;;;;;;7.13;4.97;;;9.20;99.90;;;;;;5094586;28;20570;-81
2022/11/15 06:53:56;;;;;;;9.20;5.80;;;9.10;99.90;;;;;;5094248;28;20227;-81
2022/11/15 06:56:22;;;;;;;9.97;5.70;;;9.20;99.90;;;;;;5094714;28;20202;-81
2022/11/15 06:58:49;;;;;;;9.43;5.83;;;9.50;99.90;;;;;;5093930;28;20316;-81
2022/11/15 07:01:16;;;;;;;8.53;5.53;;;9.60;99.90;;;;;;5093366;28;20216;-81
2022/11/15 07:03:43;;;;;;;8.90;5.37;;;9.40;99.90;;;;;;5093062;28;20208;-81
2022/11/15 07:06:11;;;;;;;8.93;6.07;;;9.50;99.90;;;;;;5075075;28;20727;-81
2022/11/15 07:08:37;;;;;;;8.60;5.53;;;9.40;99.90;;;;;;5073510;28;20218;-81
2022/11/15 07:11:07;;;;;;;10.90;5.50;;;9.40;99.90;;;;;;5093555;28;20229;-81
2022/11/15 07:13:35;;;;;;;11.83;6.17;;;9.30;99.90;;;;;;5096581;28;20229;-81
2022/11/15 07:16:03;;;;;;;8.80;6.17;;;9.30;99.90;;;;;;5078045;28;20942;-81
2022/11/15 07:18:30;;;;;;;9.03;6.30;;;9.20;99.90;;;;;;5075996;28;20308;-81
2022/11/15 07:21:01;;;;;;;12.70;6.60;;;9.30;99.90;;;;;;5084931;28;20288;-81
2022/11/15 07:23:28;;;;;;;11.43;6.50;;;9.40;99.90;;;;;;5084880;28;20213;-81
2022/11/15 07:25:56;;;;;;;10.57;6.17;;;9.40;99.90;;;;;;5074691;28;20213;-81
2022/11/15 07:28:25;;;;;;;12.87;6.93;;;9.30;99.90;;;;;;5077700;28;20217;-81
2022/11/15 07:30:51;;;;;;;10.23;6.80;;;9.20;99.90;;;;;;5094875;28;20563;-81
2022/11/15 07:33:18;;;;;;;10.53;6.83;;;9.40;99.90;;;;;;5094536;28;20198;-81
2022/11/15 07:35:49;;;;;;;9.97;6.37;;;9.30;99.90;;;;;;5092611;28;20208;-81
2022/11/15 07:38:15;;;;;;;13.13;6.83;;;9.40;99.90;;;;;;5078991;28;20226;-81
2022/11/15 07:40:42;;;;;;;8.93;5.90;;;9.50;99.90;;;;;;5091360;28;20218;-81
2022/11/15 07:43:09;;;;;;;10.77;6.23;;;9.70;99.90;;;;;;5083349;28;20214;-81
2022/11/15 07:45:43;;;;;;;9.40;6.93;;;9.50;99.90;;;;;;5073079;28;20209;-81
2022/11/15 07:48:10;;;;;;;11.43;6.37;;;9.50;99.90;;;;;;5073879;28;20225;-81
2022/11/15 07:50:37;;;;;;;11.23;6.63;;;9.70;99.90;;;;;;5074861;28;20206;-81
2022/11/15 07:53:04;;;;;;;12.87;6.17;;;9.70;99.90;;;;;;5072768;28;20210;-81
2022/11/15 07:55:30;;;;;;;8.77;5.50;;;9.60;99.90;;;;;;5075038;28;20210;-81
2022/11/15 07:58:01;;;;;;;8.27;5.80;;;9.50;99.90;;;;;;5079090;28;20226;-81
2022/11/15 08:00:28;;;;;;;10.67;5.53;;;9.40;99.90;;;;;;5099695;28;20209;-81
2022/11/15 08:03:04;;;;;;;11.23;6.00;;;9.40;99.90;;;;;;5097669;28;20204;-81
2022/11/15 08:05:31;;;;;;;11.53;6.40;;;9.30;99.90;;;;;;5098991;28;20201;-81
2022/11/15 08:07:58;;;;;;;10.10;6.00;;;9.30;99.90;;;;;;5098059;28;20213;-81
2022/11/15 08:10:25;;;;;;;7.13;5.63;;;9.30;99.90;;;;;;5099212;28;20205;-81
2022/11/15 08:12:59;;;;;;;11.77;6.47;;;9.20;99.90;;;;;;5096852;28;20229;-81
2022/11/15 08:15:26;;;;;;;9.23;5.60;;;9.10;99.90;;;;;;5098733;28;20197;-81
2022/11/15 08:17:55;;;;;;;11.30;6.10;;;9.50;99.90;;;;;;5099269;28;20589;-81
2022/11/15 08:20:23;;;;;;;9.20;5.60;;;9.60;99.90;;;;;;5078990;28;20289;-81
2022/11/15 08:22:50;;;;;;;9.80;5.53;;;9.90;99.90;;;;;;5078377;28;20209;-81
2022/11/15 08:25:17;;;;;;;9.37;6.60;;;9.90;99.90;;;;;;5077496;28;20206;-81
2022/11/15 08:27:44;;;;;;;9.47;6.03;;;9.90;99.90;;;;;;5078076;28;20234;-81
2022/11/15 08:30:13;;;;;;;9.70;5.93;;;10.30;99.90;;;;;;5076552;28;20203;-81
2022/11/15 08:32:40;;;;;;;8.17;5.53;;;10.20;99.90;;;;;;5076127;28;20726;-81
2022/11/15 08:35:08;;;;;;;8.23;5.60;;;10.50;99.90;;;;;;5077858;28;20208;-81
2022/11/15 08:37:36;;;;;;;9.50;5.10;;;10.60;99.90;;;;;;5077107;28;20686;-81
2022/11/15 08:40:04;;;;;;;10.47;5.37;;;10.90;99.90;;;;;;5081257;28;20206;-81
2022/11/15 08:42:30;;;;;;;8.10;4.97;;;11.00;99.90;;;;;;5074922;28;20221;-81
2022/11/15 08:44:58;;;;;;;8.93;5.47;;;11.00;99.90;;;;;;5077001;28;20210;-82
2022/11/15 08:47:24;;;;;;;9.50;5.00;;;11.00;99.90;;;;;;5076778;28;20224;-81
2022/11/15 08:49:51;;;;;;;6.33;4.50;;;11.30;99.90;;;;;;5081925;28;20206;-81
2022/11/15 08:52:18;;;;;;;6.50;4.47;;;11.20;99.90;;;;;;5096718;28;20230;-81
2022/11/15 08:54:46;;;;;;;5.17;4.37;;;11.10;99.90;;;;;;5091678;28;20198;-81
2022/11/15 08:57:13;;;;;;;6.53;4.17;;;11.30;99.90;;;;;;5097058;28;20228;-81
2022/11/15 08:59:40;;;;;;;6.03;3.90;;;12.00;99.90;;;;;;5096894;28;20217;-82
2022/11/15 09:02:07;;;;;;;8.50;4.23;;;12.00;99.90;;;;;;5097244;28;20204;-81
2022/11/15 09:04:34;;;;;;;7.97;4.70;;;12.30;99.90;;;;;;5097236;28;20585;-81
2022/11/15 09:07:01;;;;;;;8.70;4.40;;;12.60;99.90;;;;;;5096896;28;20233;-82
2022/11/15 09:09:27;;;;;;;5.77;3.73;;;13.90;99.90;;;;;;5083948;28;20213;-81
2022/11/15 09:11:55;;;;;;;6.23;3.80;;;13.80;99.90;;;;;;5088181;28;20227;-81
2022/11/15 09:14:22;;;;;;;5.90;3.90;;;13.30;99.90;;;;;;5096505;28;20217;-81
2022/11/15 09:16:49;;;;;;;4.93;3.70;;;12.90;99.90;;;;;;5097670;28;20212;-81
2022/11/15 09:19:16;;;;;;;5.77;4.00;;;12.60;99.90;;;;;;5096639;28;20198;-82
2022/11/15 09:21:42;;;;;;;6.37;3.77;;;12.40;99.90;;;;;;5097207;28;20193;-81
2022/11/15 09:24:09;;;;;;;6.47;4.10;;;12.50;99.90;;;;;;5098868;28;20202;-81
2022/11/15 09:26:36;;;;;;;5.93;3.77;;;12.70;99.90;;;;;;5095314;28;20205;-81
2022/11/15 09:29:04;;;;;;;5.00;4.23;;;13.00;99.90;;;;;;5085934;28;20198;-82
2022/11/15 09:31:31;;;;;;;7.57;4.80;;;12.90;99.90;;;;;;5096116;28;20217;-81
2022/11/15 09:33:58;;;;;;;6.47;4.07;;;12.80;99.90;;;;;;5093843;28;20570;-81
2022/11/15 09:36:25;;;;;;;6.47;4.40;;;12.90;99.90;;;;;;5096021;28;20207;-81
2022/11/15 09:38:51;;;;;;;8.87;4.10;;;13.20;99.90;;;;;;5095710;28;20225;-82
2022/11/15 09:41:38;;;;;;;7.03;4.57;;;13.00;99.90;;;;;;5095760;28;20199;-82
2022/11/15 09:44:24;;;;;;;8.70;4.60;;;13.20;99.90;;;;;;5096685;28;20202;-81
2022/11/15 09:47:01;;;;;;;7.17;4.20;;;13.40;99.90;;;;;;5096342;28;20320;-82
2022/11/15 09:49:30;;;;;;;4.70;3.40;;;13.50;99.90;;;;;;5094507;28;20204;-82
2022/11/15 09:51:57;;;;;;;6.37;3.70;;;13.50;99.90;;;;;;5095502;28;20226;-81
2022/11/15 09:54:30;;;;;;;7.63;4.20;;;13.60;99.90;;;;;;5096869;28;20288;-82
2022/11/15 09:57:03;;;;;;;8.33;4.40;;;13.70;99.90;;;;;;5097444;28;20312;-82
2022/11/15 09:59:46;;;;;;;6.87;3.90;;;14.10;99.90;;;;;;5096227;28;20621;-82
2022/11/15 10:02:32;;;;;;;5.23;4.00;;;14.20;99.90;;;;;;5096157;28;20656;-82
2022/11/15 10:05:00;;;;;;;5.87;4.30;;;14.30;99.90;;;;;;5095755;28;20194;-82
2022/11/15 10:07:31;;;;;;;4.27;3.30;;;14.30;99.90;;;;;;5095886;28;20804;-82
2022/11/15 10:10:05;;;;;;;7.13;4.23;;;14.80;99.90;;;;;;5095992;28;20626;-82
2022/11/15 10:12:32;;;;;;;4.80;4.07;;;14.70;1.00;;;;;;5095613;28;20209;-82
2022/11/15 10:15:04;;;;;;;6.80;3.87;;;14.90;1.00;;;;;;5095755;28;20202;-82
2022/11/15 10:18:08;;;;;;;6.55;3.83;;;14.90;1.00;;;;;;5095384;28;20248;-82
2022/11/15 10:20:43;;;;;;;5.47;3.73;;;14.80;1.00;;;;;;5071495;28;20574;-82
2022/11/15 10:23:14;;;;;;;5.30;3.63;;;14.80;1.00;;;;;;5095929;28;20182;-82
2022/11/15 10:25:41;;;;;;;5.60;3.80;;;15.20;1.00;;;;;;5095775;28;20214;-82
2022/11/15 10:28:16;;;;;;;5.15;3.63;;;15.40;99.90;;;;;;5095982;28;20225;-82
2022/11/15 10:30:46;;;;;;;5.45;3.33;;;15.60;99.90;;;;;;5096411;28;20795;-81
2022/11/15 10:33:31;;;;;;;4.07;3.10;;;15.70;1.00;;;;;;5095555;28;20615;-82
2022/11/15 10:36:21;;;;;;;4.45;3.33;;;15.60;1.00;;;;;;5095935;28;20221;-82
2022/11/15 10:38:54;;;;;;;3.28;2.97;;;15.30;1.00;;;;;;5097988;28;20221;-82
2022/11/15 10:41:30;;;;;;;5.72;3.72;;;15.20;1.00;;;;;;5097634;28;20206;-82
2022/11/15 10:44:18;;;;;;;5.43;3.40;;;14.90;1.00;;;;;;5096623;28;20239;-82
2022/11/15 10:46:50;;;;;;;4.18;3.33;;;14.70;1.00;;;;;;5095309;28;20204;-82
2022/11/15 10:49:19;;;;;;;5.22;3.60;;;14.50;1.00;;;;;;5095028;28;20208;-82
2022/11/15 10:51:50;;;;;;;5.03;3.53;;;14.40;1.00;;;;;;5094368;28;20252;-82
2022/11/15 10:54:23;;;;;;;6.22;3.58;;;14.50;1.00;;;;;;5095749;28;20182;-82
2022/11/15 10:56:52;;;;;;;5.72;3.65;;;14.60;1.00;;;;;;5095472;28;20208;-82
2022/11/15 10:59:27;;;;;;;4.03;3.00;;;14.60;1.00;;;;;;5095240;28;20198;-82
2022/11/15 11:01:56;;;;;;;4.47;3.10;;;14.60;27.90;;;;;;5094816;28;20203;-82
2022/11/15 11:04:22;;;;;;;5.93;3.50;;;14.70;1.00;;;;;;5095537;28;20215;-82
2022/11/15 11:06:52;;;;;;;4.90;3.23;;;14.60;1.00;;;;;;5095125;28;20221;-82
2022/11/15 11:09:29;;;;;;;6.60;3.80;;;14.50;1.00;;;;;;5096345;28;20399;-82
2022/11/15 11:11:57;;;;;;;6.35;3.28;;;14.50;1.00;;;;;;5095125;28;20229;-82
2022/11/15 11:14:27;;;;;;;6.28;3.78;;;14.50;1.00;;;;;;5095982;28;20212;-82
2022/11/15 11:17:00;;;;;;;4.30;3.20;;;14.30;1.00;;;;;;5094686;28;20233;-82
2022/11/15 11:19:48;;;;;;;3.15;2.85;;;14.40;1.00;;;;;;5099040;28;20209;-82
2022/11/15 11:22:23;;;;;;;5.03;3.43;;;14.40;1.00;;;;;;5101763;28;20288;-82
2022/11/15 11:25:00;;;;;;;5.93;3.30;;;14.50;1.00;;;;;;5103058;28;20288;-82
2022/11/15 11:27:40;;;;;;;5.30;3.47;;;14.40;1.00;;;;;;5102997;28;20323;-82
2022/11/15 11:30:16;;;;;;;7.00;3.67;;;14.50;1.00;;;;;;5106350;28;20212;-82
2022/11/15 11:33:06;;;;;;;6.53;3.73;;;14.50;1.00;;;;;;5107228;28;20225;-82
2022/11/15 11:35:39;;;;;;;4.43;3.40;;;14.40;1.00;;;;;;5108267;28;20266;-82
2022/11/15 11:38:20;;;;;;;5.50;4.10;;;14.40;1.00;;;;;;5107911;28;20308;-82
2022/11/15 11:41:01;;;;;;;6.55;3.85;;;14.40;1.00;;;;;;5108136;28;20208;-82
2022/11/15 11:43:37;;;;;;;5.57;3.67;;;14.30;1.00;;;;;;5106512;28;20204;-82
2022/11/15 11:46:22;;;;;;;6.53;3.37;;;14.30;1.00;;;;;;5115408;28;20261;-82
2022/11/15 11:48:57;;;;;;;7.03;3.90;;;14.30;1.00;;;;;;5099378;28;20245;-82
2022/11/15 11:51:28;;;;;;;5.63;3.33;;;14.40;1.00;;;;;;5117334;28;20283;-82
2022/11/15 11:53:58;;;;;;;4.17;3.20;;;14.40;1.00;;;;;;5100963;28;20230;-82
2022/11/15 11:56:29;;;;;;;5.53;3.20;;;14.50;1.00;;;;;;5087584;28;20198;-82
2022/11/15 11:59:01;;;;;;;5.03;3.70;;;14.30;1.00;;;;;;5084748;28;20198;-82
2022/11/15 12:01:31;;;;;;;6.33;3.43;;;14.30;1.00;;;;;;5082159;28;20210;-82
2022/11/15 12:04:10;;;;;;;6.55;3.67;;;14.30;1.00;;;;;;5083305;28;20208;-82
2022/11/15 12:06:42;;;;;;;5.03;3.53;;;14.30;1.00;;;;;;5105580;28;20192;-82
2022/11/15 12:09:16;;;;;;;5.57;3.63;;;14.20;1.00;;;;;;5100331;28;20222;-82
2022/11/15 12:11:51;;;;;;;5.97;3.53;;;14.30;1.00;;;;;;5106352;28;20284;-82
2022/11/15 12:14:28;;;;;;;7.77;4.20;;;14.30;1.00;;;;;;5097257;28;20696;-82
2022/11/15 12:16:55;;;;;;;6.10;3.70;;;14.20;99.90;;;;;;5087862;28;20260;-82
2022/11/15 12:19:23;;;;;;;6.10;3.70;;;14.10;99.90;;;;;;5105926;28;20205;-82
2022/11/15 12:21:56;;;;;;;7.47;3.63;;;14.10;1.00;;;;;;5104879;28;20294;-82
2022/11/15 12:24:27;;;;;;;6.70;3.60;;;14.20;1.00;;;;;;5106068;28;20205;-82
2022/11/15 12:27:02;;;;;;;5.87;3.40;;;14.10;1.00;;;;;;5105756;28;20799;-82
2022/11/15 12:29:34;;;;;;;4.33;3.50;;;14.10;99.90;;;;;;5103313;28;20288;-82
2022/11/15 12:32:03;;;;;;;5.53;3.80;;;14.10;1.00;;;;;;5098308;28;20218;-82
2022/11/15 12:34:40;;;;;;;6.80;3.80;;;14.10;1.00;;;;;;5098341;28;20208;-82
2022/11/15 12:37:34;;;;;;;6.13;3.57;;;14.00;1.00;;;;;;5098062;28;20709;-82
2022/11/15 12:40:19;;;;;;;7.53;4.10;;;14.00;1.00;;;;;;5097593;28;20293;-82
2022/11/15 12:42:59;;;;;;;7.57;4.20;;;14.20;1.00;;;;;;5098056;28;20201;-82
2022/11/15 12:45:28;;;;;;;6.77;4.50;;;14.30;99.90;;;;;;5105634;28;20208;-82
2022/11/15 12:48:20;;;;;;;8.13;4.43;;;14.30;99.90;;;;;;5103951;28;20233;-81
2022/11/15 12:50:58;;;;;;;7.40;3.70;;;14.30;99.90;;;;;;5103016;28;20208;-81
2022/11/15 12:53:30;;;;;;;6.13;4.33;;;14.30;1.00;;;;;;5108704;28;20225;-81
2022/11/15 12:56:23;;;;;;;5.90;4.30;;;14.20;1.00;;;;;;5109517;28;20635;-81
2022/11/15 12:58:53;;;;;;;5.27;3.47;;;14.30;68.40;;;;;;5102337;28;20222;-81
2022/11/15 13:01:59;;;;;;;7.30;3.80;;;14.40;1.00;;;;;;5090719;28;20293;-82
2022/11/15 13:04:28;;;;;;;4.83;3.70;;;14.50;1.00;;;;;;5107944;28;20260;-81
2022/11/15 13:06:58;;;;;;;12.47;6.37;;;14.60;1.00;;;;;;5107298;28;20252;-81
2022/11/15 13:09:51;;;;;;;7.73;3.73;;;14.60;6.80;;;;;;5110496;28;20189;-81
2022/11/15 13:12:50;;;;;;;6.65;4.75;;;14.60;1.00;;;;;;5102337;28;20674;-81
2022/11/15 13:15:36;;;;;;;7.63;3.90;;;14.80;99.90;;;;;;5106307;28;20197;-81
2022/11/15 13:18:27;;;;;;;8.00;3.77;;;14.90;1.00;;;;;;5095918;28;20287;-83